Merritt Island, Florida
Current Conditions -  °F | °C
As of 4:58 AM on Thursday 27 Nov 2014 (Local Time) from KCOF Reporting Station
Clear Clear  
Wind Chill: 54°   Ceiling: Unl
Heat Index: 54°   Visibility: 10mi
Dew Point: 44°   Wind: 10mph
Humidity: 69%   Direction: 310°NW
Pressure: 30.24"   Gusts: NA
Location:  28.36°N, 80.68°W
Report Text: KCOF 270958Z AUTO 31009KT 10SM CLR 12/07 A3024 RMK AO2 SLP245 T01220067
Loading
Personal Weather Stations






























Interactive Weather Map New forecast layout! Learn more

10-Day Weather Forecast

Advertisements
Track Severe Weather on mobile